sensor_id;sensor_type;location;lat;lon;timestamp;P1;durP1;ratioP1;P2;durP2;ratioP2
25359;SDS011;13311;51.386;0.016;2023-06-01T00:01:52;7.32;;;5.32;;
25359;SDS011;13311;51.386;0.016;2023-06-01T00:06:53;9.85;;;6.22;;
25359;SDS011;13311;51.386;0.016;2023-06-01T00:11:54;6.68;;;5.03;;
25359;SDS011;13311;51.386;0.016;2023-06-01T00:16:54;8.07;;;5.72;;
25359;SDS011;13311;51.386;0.016;2023-06-01T00:21:58;7.50;;;4.95;;
25359;SDS011;13311;51.386;0.016;2023-06-01T00:26:59;7.32;;;5.05;;
25359;SDS011;13311;51.386;0.016;2023-06-01T00:32:01;8.35;;;5.18;;
25359;SDS011;13311;51.386;0.016;2023-06-01T00:37:02;10.10;;;6.13;;
25359;SDS011;13311;51.386;0.016;2023-06-01T00:42:03;11.38;;;5.65;;
25359;SDS011;13311;51.386;0.016;2023-06-01T00:47:05;11.40;;;6.03;;
25359;SDS011;13311;51.386;0.016;2023-06-01T00:52:07;9.75;;;5.72;;
25359;SDS011;13311;51.386;0.016;2023-06-01T00:57:08;10.00;;;6.05;;
25359;SDS011;13311;51.386;0.016;2023-06-01T01:02:09;8.85;;;6.55;;
25359;SDS011;13311;51.386;0.016;2023-06-01T01:12:28;9.55;;;6.75;;
25359;SDS011;13311;51.386;0.016;2023-06-01T01:18:02;7.28;;;5.93;;
25359;SDS011;13311;51.386;0.016;2023-06-01T01:23:14;9.23;;;6.60;;
25359;SDS011;13311;51.386;0.016;2023-06-01T01:33:53;13.90;;;8.30;;
25359;SDS011;13311;51.386;0.016;2023-06-01T01:38:56;17.17;;;7.32;;
25359;SDS011;13311;51.386;0.016;2023-06-01T01:43:57;10.38;;;6.28;;
25359;SDS011;13311;51.386;0.016;2023-06-01T01:54:21;12.82;;;7.45;;
25359;SDS011;13311;51.386;0.016;2023-06-01T01:59:24;11.95;;;7.18;;
25359;SDS011;13311;51.386;0.016;2023-06-01T02:04:26;14.95;;;7.82;;
25359;SDS011;13311;51.386;0.016;2023-06-01T02:09:27;13.80;;;7.60;;
25359;SDS011;13311;51.386;0.016;2023-06-01T02:14:28;10.55;;;6.78;;
25359;SDS011;13311;51.386;0.016;2023-06-01T02:19:29;10.18;;;6.55;;
25359;SDS011;13311;51.386;0.016;2023-06-01T02:24:29;10.88;;;7.03;;
25359;SDS011;13311;51.386;0.016;2023-06-01T02:29:30;9.52;;;6.15;;
25359;SDS011;13311;51.386;0.016;2023-06-01T02:34:31;15.55;;;7.47;;
25359;SDS011;13311;51.386;0.016;2023-06-01T02:39:32;13.55;;;6.35;;
25359;SDS011;13311;51.386;0.016;2023-06-01T02:44:33;13.93;;;6.75;;
25359;SDS011;13311;51.386;0.016;2023-06-01T02:49:33;11.75;;;6.72;;
25359;SDS011;13311;51.386;0.016;2023-06-01T02:54:35;10.60;;;7.45;;
25359;SDS011;13311;51.386;0.016;2023-06-01T02:59:36;11.95;;;7.30;;
25359;SDS011;13311;51.386;0.016;2023-06-01T03:04:37;12.43;;;7.00;;
25359;SDS011;13311;51.386;0.016;2023-06-01T03:09:38;11.88;;;7.10;;
25359;SDS011;13311;51.386;0.016;2023-06-01T03:14:38;11.65;;;7.47;;
25359;SDS011;13311;51.386;0.016;2023-06-01T03:19:39;8.23;;;5.88;;
25359;SDS011;13311;51.386;0.016;2023-06-01T03:24:40;14.68;;;7.43;;
25359;SDS011;13311;51.386;0.016;2023-06-01T03:29:41;10.75;;;6.85;;
25359;SDS011;13311;51.386;0.016;2023-06-01T03:34:42;10.18;;;6.57;;
25359;SDS011;13311;51.386;0.016;2023-06-01T03:39:42;13.02;;;7.75;;
25359;SDS011;13311;51.386;0.016;2023-06-01T03:44:43;13.55;;;6.85;;
25359;SDS011;13311;51.386;0.016;2023-06-01T03:49:44;11.88;;;5.95;;
25359;SDS011;13311;51.386;0.016;2023-06-01T03:54:45;13.15;;;7.10;;
25359;SDS011;13311;51.386;0.016;2023-06-01T03:59:46;12.52;;;6.68;;
25359;SDS011;13311;51.386;0.016;2023-06-01T04:04:46;15.40;;;6.75;;
25359;SDS011;13311;51.386;0.016;2023-06-01T04:09:47;15.15;;;7.50;;
25359;SDS011;13311;51.386;0.016;2023-06-01T04:14:48;13.98;;;8.15;;
25359;SDS011;13311;51.386;0.016;2023-06-01T04:19:49;15.95;;;7.32;;
25359;SDS011;13311;51.386;0.016;2023-06-01T04:24:50;8.68;;;6.93;;
25359;SDS011;13311;51.386;0.016;2023-06-01T04:29:50;13.70;;;7.72;;
25359;SDS011;13311;51.386;0.016;2023-06-01T04:34:53;11.80;;;6.88;;
25359;SDS011;13311;51.386;0.016;2023-06-01T04:39:53;14.38;;;8.07;;
25359;SDS011;13311;51.386;0.016;2023-06-01T04:44:56;14.00;;;7.93;;
25359;SDS011;13311;51.386;0.016;2023-06-01T04:49:58;18.52;;;7.20;;
25359;SDS011;13311;51.386;0.016;2023-06-01T04:54:59;16.92;;;8.02;;
25359;SDS011;13311;51.386;0.016;2023-06-01T04:59:59;11.90;;;7.65;;
25359;SDS011;13311;51.386;0.016;2023-06-01T05:05:00;12.82;;;8.00;;
25359;SDS011;13311;51.386;0.016;2023-06-01T05:10:01;15.05;;;7.72;;
25359;SDS011;13311;51.386;0.016;2023-06-01T05:15:07;11.25;;;8.15;;
25359;SDS011;13311;51.386;0.016;2023-06-01T05:20:09;11.43;;;7.10;;
25359;SDS011;13311;51.386;0.016;2023-06-01T05:25:11;12.38;;;7.63;;
25359;SDS011;13311;51.386;0.016;2023-06-01T05:30:12;10.15;;;6.95;;
25359;SDS011;13311;51.386;0.016;2023-06-01T05:35:13;12.77;;;7.45;;
25359;SDS011;13311;51.386;0.016;2023-06-01T05:40:13;10.70;;;7.43;;
25359;SDS011;13311;51.386;0.016;2023-06-01T05:45:14;15.68;;;7.45;;
25359;SDS011;13311;51.386;0.016;2023-06-01T05:50:15;11.20;;;7.03;;
25359;SDS011;13311;51.386;0.016;2023-06-01T05:55:16;10.95;;;6.55;;
25359;SDS011;13311;51.386;0.016;2023-06-01T06:00:17;16.00;;;7.10;;
25359;SDS011;13311;51.386;0.016;2023-06-01T06:05:18;13.80;;;6.95;;
25359;SDS011;13311;51.386;0.016;2023-06-01T06:10:18;13.30;;;6.90;;
25359;SDS011;13311;51.386;0.016;2023-06-01T06:15:19;15.30;;;7.80;;
25359;SDS011;13311;51.386;0.016;2023-06-01T06:20:20;14.00;;;7.38;;
25359;SDS011;13311;51.386;0.016;2023-06-01T06:25:22;14.57;;;7.30;;
25359;SDS011;13311;51.386;0.016;2023-06-01T06:30:23;13.98;;;7.85;;
25359;SDS011;13311;51.386;0.016;2023-06-01T06:35:25;11.05;;;7.20;;
25359;SDS011;13311;51.386;0.016;2023-06-01T06:40:25;11.38;;;7.60;;
25359;SDS011;13311;51.386;0.016;2023-06-01T06:45:26;15.77;;;7.53;;
25359;SDS011;13311;51.386;0.016;2023-06-01T06:50:27;14.82;;;6.93;;
25359;SDS011;13311;51.386;0.016;2023-06-01T06:55:27;12.13;;;8.30;;
25359;SDS011;13311;51.386;0.016;2023-06-01T07:00:28;12.05;;;7.25;;
25359;SDS011;13311;51.386;0.016;2023-06-01T07:05:29;18.48;;;7.05;;
25359;SDS011;13311;51.386;0.016;2023-06-01T07:10:30;12.90;;;7.50;;
25359;SDS011;13311;51.386;0.016;2023-06-01T07:15:30;13.13;;;7.47;;
25359;SDS011;13311;51.386;0.016;2023-06-01T07:20:31;12.77;;;7.43;;
25359;SDS011;13311;51.386;0.016;2023-06-01T07:25:32;14.27;;;7.28;;
25359;SDS011;13311;51.386;0.016;2023-06-01T07:30:33;13.65;;;7.75;;
25359;SDS011;13311;51.386;0.016;2023-06-01T07:35:34;18.13;;;8.25;;
25359;SDS011;13311;51.386;0.016;2023-06-01T07:40:35;14.13;;;6.95;;
25359;SDS011;13311;51.386;0.016;2023-06-01T07:45:36;10.20;;;6.90;;
25359;SDS011;13311;51.386;0.016;2023-06-01T07:50:39;14.07;;;7.30;;
25359;SDS011;13311;51.386;0.016;2023-06-01T07:55:40;14.15;;;6.15;;
25359;SDS011;13311;51.386;0.016;2023-06-01T08:00:41;14.05;;;7.07;;
25359;SDS011;13311;51.386;0.016;2023-06-01T08:05:42;12.73;;;6.13;;
25359;SDS011;13311;51.386;0.016;2023-06-01T08:10:44;13.43;;;6.32;;
25359;SDS011;13311;51.386;0.016;2023-06-01T08:15:45;13.10;;;6.55;;
25359;SDS011;13311;51.386;0.016;2023-06-01T08:20:48;13.57;;;6.88;;
25359;SDS011;13311;51.386;0.016;2023-06-01T08:25:49;11.27;;;6.60;;
25359;SDS011;13311;51.386;0.016;2023-06-01T08:30:50;16.15;;;6.30;;
25359;SDS011;13311;51.386;0.016;2023-06-01T08:35:51;12.15;;;6.13;;
25359;SDS011;13311;51.386;0.016;2023-06-01T08:40:52;14.60;;;6.15;;
25359;SDS011;13311;51.386;0.016;2023-06-01T08:45:53;12.50;;;6.65;;
25359;SDS011;13311;51.386;0.016;2023-06-01T08:50:57;12.13;;;6.47;;
25359;SDS011;13311;51.386;0.016;2023-06-01T08:56:00;7.55;;;5.65;;
25359;SDS011;13311;51.386;0.016;2023-06-01T09:01:03;11.85;;;6.28;;
25359;SDS011;13311;51.386;0.016;2023-06-01T09:06:03;9.65;;;5.15;;
25359;SDS011;13311;51.386;0.016;2023-06-01T09:11:04;10.57;;;6.13;;
25359;SDS011;13311;51.386;0.016;2023-06-01T09:16:05;12.07;;;5.82;;
25359;SDS011;13311;51.386;0.016;2023-06-01T09:21:10;11.60;;;6.32;;
25359;SDS011;13311;51.386;0.016;2023-06-01T09:26:11;13.02;;;5.65;;
25359;SDS011;13311;51.386;0.016;2023-06-01T09:31:26;9.32;;;5.32;;
25359;SDS011;13311;51.386;0.016;2023-06-01T09:36:38;7.80;;;5.15;;
25359;SDS011;13311;51.386;0.016;2023-06-01T09:46:51;8.45;;;5.70;;
25359;SDS011;13311;51.386;0.016;2023-06-01T09:57:07;10.65;;;4.85;;
25359;SDS011;13311;51.386;0.016;2023-06-01T10:02:11;9.93;;;4.88;;
25359;SDS011;13311;51.386;0.016;2023-06-01T10:07:23;10.68;;;5.05;;
25359;SDS011;13311;51.386;0.016;2023-06-01T10:12:28;9.68;;;5.22;;
25359;SDS011;13311;51.386;0.016;2023-06-01T10:17:29;9.88;;;5.78;;
25359;SDS011;13311;51.386;0.016;2023-06-01T10:22:31;12.25;;;6.70;;
25359;SDS011;13311;51.386;0.016;2023-06-01T10:32:46;10.20;;;5.78;;
25359;SDS011;13311;51.386;0.016;2023-06-01T10:48:54;8.43;;;5.65;;
25359;SDS011;13311;51.386;0.016;2023-06-01T10:59:33;7.68;;;5.95;;
25359;SDS011;13311;51.386;0.016;2023-06-01T11:04:34;11.52;;;5.68;;
25359;SDS011;13311;51.386;0.016;2023-06-01T11:09:45;8.73;;;5.72;;
25359;SDS011;13311;51.386;0.016;2023-06-01T11:15:07;10.05;;;6.47;;
25359;SDS011;13311;51.386;0.016;2023-06-01T11:20:11;8.40;;;5.78;;
25359;SDS011;13311;51.386;0.016;2023-06-01T11:25:12;8.50;;;4.65;;
25359;SDS011;13311;51.386;0.016;2023-06-01T11:30:18;10.25;;;6.05;;
25359;SDS011;13311;51.386;0.016;2023-06-01T11:35:20;13.43;;;6.50;;
25359;SDS011;13311;51.386;0.016;2023-06-01T11:40:23;13.20;;;5.72;;
25359;SDS011;13311;51.386;0.016;2023-06-01T11:45:24;9.48;;;6.25;;
25359;SDS011;13311;51.386;0.016;2023-06-01T11:50:27;11.93;;;6.75;;
25359;SDS011;13311;51.386;0.016;2023-06-01T11:55:29;10.82;;;6.50;;
25359;SDS011;13311;51.386;0.016;2023-06-01T12:00:29;10.82;;;6.13;;
25359;SDS011;13311;51.386;0.016;2023-06-01T12:05:37;10.95;;;5.90;;
25359;SDS011;13311;51.386;0.016;2023-06-01T12:10:42;10.13;;;5.13;;
25359;SDS011;13311;51.386;0.016;2023-06-01T12:15:45;13.10;;;6.55;;
25359;SDS011;13311;51.386;0.016;2023-06-01T12:20:46;12.73;;;6.22;;
25359;SDS011;13311;51.386;0.016;2023-06-01T12:25:50;10.65;;;5.75;;
25359;SDS011;13311;51.386;0.016;2023-06-01T12:31:11;11.75;;;7.30;;
25359;SDS011;13311;51.386;0.016;2023-06-01T12:41:34;10.77;;;6.88;;
25359;SDS011;13311;51.386;0.016;2023-06-01T12:46:35;11.70;;;7.22;;
25359;SDS011;13311;51.386;0.016;2023-06-01T12:51:36;10.93;;;6.18;;
25359;SDS011;13311;51.386;0.016;2023-06-01T12:56:37;10.68;;;6.78;;
25359;SDS011;13311;51.386;0.016;2023-06-01T13:01:38;9.30;;;6.32;;
25359;SDS011;13311;51.386;0.016;2023-06-01T13:06:39;11.88;;;6.90;;
25359;SDS011;13311;51.386;0.016;2023-06-01T13:11:40;12.77;;;6.43;;
25359;SDS011;13311;51.386;0.016;2023-06-01T13:16:41;13.32;;;7.72;;
25359;SDS011;13311;51.386;0.016;2023-06-01T13:21:42;11.30;;;6.55;;
25359;SDS011;13311;51.386;0.016;2023-06-01T13:26:42;12.45;;;7.45;;
25359;SDS011;13311;51.386;0.016;2023-06-01T13:31:44;10.38;;;6.38;;
25359;SDS011;13311;51.386;0.016;2023-06-01T13:36:45;11.27;;;6.63;;
25359;SDS011;13311;51.386;0.016;2023-06-01T13:41:46;11.20;;;7.40;;
25359;SDS011;13311;51.386;0.016;2023-06-01T13:46:46;11.43;;;6.32;;
25359;SDS011;13311;51.386;0.016;2023-06-01T13:51:47;10.95;;;6.72;;
25359;SDS011;13311;51.386;0.016;2023-06-01T13:56:49;13.32;;;7.07;;
25359;SDS011;13311;51.386;0.016;2023-06-01T14:01:49;12.35;;;6.28;;
25359;SDS011;13311;51.386;0.016;2023-06-01T14:06:50;9.90;;;5.65;;
25359;SDS011;13311;51.386;0.016;2023-06-01T14:11:51;13.02;;;6.22;;
25359;SDS011;13311;51.386;0.016;2023-06-01T14:16:52;10.70;;;6.85;;
25359;SDS011;13311;51.386;0.016;2023-06-01T14:21:52;12.05;;;6.72;;
25359;SDS011;13311;51.386;0.016;2023-06-01T14:26:53;8.90;;;6.00;;
25359;SDS011;13311;51.386;0.016;2023-06-01T14:31:54;11.23;;;7.18;;
25359;SDS011;13311;51.386;0.016;2023-06-01T14:36:55;8.75;;;6.22;;
25359;SDS011;13311;51.386;0.016;2023-06-01T14:41:55;10.23;;;6.32;;
25359;SDS011;13311;51.386;0.016;2023-06-01T14:46:56;12.20;;;7.00;;
25359;SDS011;13311;51.386;0.016;2023-06-01T14:51:57;14.85;;;7.65;;
25359;SDS011;13311;51.386;0.016;2023-06-01T14:56:58;13.13;;;7.43;;
25359;SDS011;13311;51.386;0.016;2023-06-01T15:02:00;10.10;;;6.28;;
25359;SDS011;13311;51.386;0.016;2023-06-01T15:07:01;16.25;;;7.00;;
25359;SDS011;13311;51.386;0.016;2023-06-01T15:12:02;9.05;;;6.63;;
25359;SDS011;13311;51.386;0.016;2023-06-01T15:17:03;13.02;;;6.93;;
25359;SDS011;13311;51.386;0.016;2023-06-01T15:22:04;16.83;;;7.63;;
25359;SDS011;13311;51.386;0.016;2023-06-01T15:27:06;11.57;;;7.38;;
25359;SDS011;13311;51.386;0.016;2023-06-01T15:32:07;13.63;;;7.57;;
25359;SDS011;13311;51.386;0.016;2023-06-01T15:37:09;17.27;;;8.93;;
25359;SDS011;13311;51.386;0.016;2023-06-01T15:42:11;18.33;;;8.02;;
25359;SDS011;13311;51.386;0.016;2023-06-01T15:47:11;13.27;;;6.95;;
25359;SDS011;13311;51.386;0.016;2023-06-01T15:52:12;13.68;;;8.80;;
25359;SDS011;13311;51.386;0.016;2023-06-01T15:57:13;15.75;;;9.00;;
25359;SDS011;13311;51.386;0.016;2023-06-01T16:02:13;15.02;;;8.32;;
25359;SDS011;13311;51.386;0.016;2023-06-01T16:07:14;14.18;;;7.43;;
25359;SDS011;13311;51.386;0.016;2023-06-01T16:12:15;16.77;;;8.77;;
25359;SDS011;13311;51.386;0.016;2023-06-01T16:17:15;20.90;;;7.43;;
25359;SDS011;13311;51.386;0.016;2023-06-01T16:22:16;19.48;;;7.85;;
25359;SDS011;13311;51.386;0.016;2023-06-01T16:27:17;12.98;;;6.75;;
25359;SDS011;13311;51.386;0.016;2023-06-01T16:32:17;12.80;;;7.45;;
25359;SDS011;13311;51.386;0.016;2023-06-01T16:37:18;13.20;;;7.60;;
25359;SDS011;13311;51.386;0.016;2023-06-01T16:42:19;17.20;;;7.80;;
25359;SDS011;13311;51.386;0.016;2023-06-01T16:47:19;14.82;;;8.48;;
25359;SDS011;13311;51.386;0.016;2023-06-01T16:52:20;12.07;;;7.57;;
25359;SDS011;13311;51.386;0.016;2023-06-01T16:57:21;13.27;;;7.20;;
25359;SDS011;13311;51.386;0.016;2023-06-01T17:02:24;15.00;;;7.53;;
25359;SDS011;13311;51.386;0.016;2023-06-01T17:07:27;13.00;;;7.28;;
25359;SDS011;13311;51.386;0.016;2023-06-01T17:12:28;14.02;;;7.78;;
25359;SDS011;13311;51.386;0.016;2023-06-01T17:17:29;14.05;;;7.00;;
25359;SDS011;13311;51.386;0.016;2023-06-01T17:22:29;11.55;;;6.03;;
25359;SDS011;13311;51.386;0.016;2023-06-01T17:27:31;13.55;;;7.57;;
25359;SDS011;13311;51.386;0.016;2023-06-01T17:32:31;9.95;;;6.82;;
25359;SDS011;13311;51.386;0.016;2023-06-01T17:37:32;13.25;;;6.75;;
25359;SDS011;13311;51.386;0.016;2023-06-01T17:42:33;10.48;;;6.75;;
25359;SDS011;13311;51.386;0.016;2023-06-01T17:47:33;10.55;;;5.78;;
25359;SDS011;13311;51.386;0.016;2023-06-01T17:52:34;8.35;;;5.55;;
25359;SDS011;13311;51.386;0.016;2023-06-01T17:57:36;7.90;;;5.60;;
25359;SDS011;13311;51.386;0.016;2023-06-01T18:02:36;14.55;;;5.30;;
25359;SDS011;13311;51.386;0.016;2023-06-01T18:07:37;6.53;;;4.47;;
25359;SDS011;13311;51.386;0.016;2023-06-01T18:12:38;10.02;;;4.20;;
25359;SDS011;13311;51.386;0.016;2023-06-01T18:17:39;10.38;;;4.90;;
25359;SDS011;13311;51.386;0.016;2023-06-01T18:22:39;8.48;;;4.07;;
25359;SDS011;13311;51.386;0.016;2023-06-01T18:27:40;6.43;;;3.28;;
25359;SDS011;13311;51.386;0.016;2023-06-01T18:32:40;6.90;;;3.50;;
25359;SDS011;13311;51.386;0.016;2023-06-01T18:37:41;6.45;;;3.55;;
25359;SDS011;13311;51.386;0.016;2023-06-01T18:42:43;8.10;;;3.17;;
25359;SDS011;13311;51.386;0.016;2023-06-01T18:47:43;7.20;;;3.20;;
25359;SDS011;13311;51.386;0.016;2023-06-01T18:52:44;8.15;;;3.08;;
25359;SDS011;13311;51.386;0.016;2023-06-01T18:57:45;9.73;;;4.20;;
25359;SDS011;13311;51.386;0.016;2023-06-01T19:02:48;6.75;;;2.58;;
25359;SDS011;13311;51.386;0.016;2023-06-01T19:07:48;5.38;;;2.38;;
25359;SDS011;13311;51.386;0.016;2023-06-01T19:12:49;13.15;;;2.88;;
25359;SDS011;13311;51.386;0.016;2023-06-01T19:17:53;4.60;;;2.08;;
25359;SDS011;13311;51.386;0.016;2023-06-01T19:22:54;5.10;;;2.63;;
25359;SDS011;13311;51.386;0.016;2023-06-01T19:27:54;5.95;;;1.85;;
25359;SDS011;13311;51.386;0.016;2023-06-01T19:32:55;4.18;;;1.50;;
25359;SDS011;13311;51.386;0.016;2023-06-01T19:37:57;2.08;;;1.30;;
25359;SDS011;13311;51.386;0.016;2023-06-01T19:42:58;6.03;;;1.63;;
25359;SDS011;13311;51.386;0.016;2023-06-01T19:47:59;6.03;;;1.00;;
25359;SDS011;13311;51.386;0.016;2023-06-01T19:53:00;3.78;;;1.08;;
25359;SDS011;13311;51.386;0.016;2023-06-01T19:58:03;2.38;;;1.23;;
25359;SDS011;13311;51.386;0.016;2023-06-01T20:03:09;1.90;;;1.27;;
25359;SDS011;13311;51.386;0.016;2023-06-01T20:08:12;3.35;;;1.77;;
25359;SDS011;13311;51.386;0.016;2023-06-01T20:13:17;4.32;;;1.70;;
25359;SDS011;13311;51.386;0.016;2023-06-01T20:18:18;4.40;;;1.58;;
25359;SDS011;13311;51.386;0.016;2023-06-01T20:23:19;6.07;;;1.88;;
25359;SDS011;13311;51.386;0.016;2023-06-01T20:28:41;5.10;;;1.52;;
25359;SDS011;13311;51.386;0.016;2023-06-01T20:33:52;5.10;;;1.73;;
25359;SDS011;13311;51.386;0.016;2023-06-01T20:38:54;4.55;;;1.70;;
25359;SDS011;13311;51.386;0.016;2023-06-01T20:43:57;5.78;;;1.75;;
25359;SDS011;13311;51.386;0.016;2023-06-01T20:49:04;8.73;;;2.00;;
25359;SDS011;13311;51.386;0.016;2023-06-01T20:54:11;4.90;;;1.73;;
25359;SDS011;13311;51.386;0.016;2023-06-01T20:59:14;3.78;;;1.40;;
25359;SDS011;13311;51.386;0.016;2023-06-01T21:04:21;4.18;;;1.55;;
25359;SDS011;13311;51.386;0.016;2023-06-01T21:09:24;2.58;;;1.58;;
25359;SDS011;13311;51.386;0.016;2023-06-01T21:14:25;6.07;;;2.40;;
25359;SDS011;13311;51.386;0.016;2023-06-01T21:19:26;9.30;;;2.88;;
25359;SDS011;13311;51.386;0.016;2023-06-01T21:24:27;5.28;;;2.42;;
25359;SDS011;13311;51.386;0.016;2023-06-01T21:29:28;5.57;;;2.17;;
25359;SDS011;13311;51.386;0.016;2023-06-01T21:34:28;6.47;;;2.30;;
25359;SDS011;13311;51.386;0.016;2023-06-01T21:39:29;4.25;;;2.47;;
25359;SDS011;13311;51.386;0.016;2023-06-01T21:44:30;4.30;;;2.25;;
25359;SDS011;13311;51.386;0.016;2023-06-01T21:49:31;6.93;;;2.70;;
25359;SDS011;13311;51.386;0.016;2023-06-01T21:54:31;7.38;;;2.30;;
25359;SDS011;13311;51.386;0.016;2023-06-01T21:59:32;9.27;;;2.88;;
25359;SDS011;13311;51.386;0.016;2023-06-01T22:04:33;9.23;;;2.35;;
25359;SDS011;13311;51.386;0.016;2023-06-01T22:09:34;7.75;;;2.53;;
25359;SDS011;13311;51.386;0.016;2023-06-01T22:14:35;8.18;;;2.60;;
25359;SDS011;13311;51.386;0.016;2023-06-01T22:19:35;8.15;;;2.60;;
25359;SDS011;13311;51.386;0.016;2023-06-01T22:24:36;7.68;;;2.75;;
25359;SDS011;13311;51.386;0.016;2023-06-01T22:29:37;5.50;;;2.42;;
25359;SDS011;13311;51.386;0.016;2023-06-01T22:34:38;3.10;;;2.25;;
25359;SDS011;13311;51.386;0.016;2023-06-01T22:39:39;7.35;;;2.33;;
25359;SDS011;13311;51.386;0.016;2023-06-01T22:44:39;6.25;;;2.50;;
25359;SDS011;13311;51.386;0.016;2023-06-01T22:49:43;4.75;;;2.40;;
25359;SDS011;13311;51.386;0.016;2023-06-01T22:54:44;5.50;;;2.40;;
25359;SDS011;13311;51.386;0.016;2023-06-01T22:59:44;7.68;;;2.88;;
25359;SDS011;13311;51.386;0.016;2023-06-01T23:04:45;7.10;;;2.78;;
25359;SDS011;13311;51.386;0.016;2023-06-01T23:09:46;9.35;;;3.28;;
25359;SDS011;13311;51.386;0.016;2023-06-01T23:14:47;7.07;;;2.35;;
25359;SDS011;13311;51.386;0.016;2023-06-01T23:19:48;8.07;;;2.83;;
25359;SDS011;13311;51.386;0.016;2023-06-01T23:24:48;5.22;;;2.50;;
25359;SDS011;13311;51.386;0.016;2023-06-01T23:29:49;8.95;;;2.75;;
25359;SDS011;13311;51.386;0.016;2023-06-01T23:34:50;7.18;;;2.65;;
25359;SDS011;13311;51.386;0.016;2023-06-01T23:39:50;9.07;;;2.42;;
25359;SDS011;13311;51.386;0.016;2023-06-01T23:44:51;12.00;;;2.45;;
25359;SDS011;13311;51.386;0.016;2023-06-01T23:49:52;9.80;;;3.00;;
25359;SDS011;13311;51.386;0.016;2023-06-01T23:54:53;8.90;;;2.70;;
25359;SDS011;13311;51.386;0.016;2023-06-01T23:59:54;7.22;;;2.50;;
